Time;durP1;ratioP1;P1;durP2;ratioP2;P2;SDS_P1;SDS_P2;PMS_P1;PMS_P2;Temp;Humidity;BMP_temperature;BMP_pressure;BME280_temperature;BME280_humidity;BME280_pressure;Samples;Min_cycle;Max_cycle;Signal;HPM_P1;HPM_P2
2022/05/28 00:01:47;;;;;;;11.40;2.67;;;;;;;15.29;44.90;101100.63;4156531;28;20067;-67
2022/05/28 00:03:51;;;;;;;10.80;3.10;;;;;;;15.34;44.43;101106.75;4147195;28;20038;-67
2022/05/28 00:05:54;;;;;;;11.02;3.47;;;;;;;15.19;45.18;101098.84;4151973;28;20489;-69
2022/05/28 00:07:56;;;;;;;11.90;2.90;;;;;;;15.22;44.59;101101.47;4153249;28;20080;-64
2022/05/28 00:10:00;;;;;;;11.23;3.40;;;;;;;15.12;45.11;101100.53;4153783;28;20104;-63
2022/05/28 00:12:06;;;;;;;15.63;3.08;;;;;;;15.12;45.67;101100.53;4150384;28;20042;-64
2022/05/28 00:14:10;;;;;;;12.52;2.92;;;;;;;15.22;45.29;101104.09;4152899;28;20046;-63
2022/05/28 00:16:13;;;;;;;10.02;2.88;;;;;;;15.06;44.32;101099.63;4162992;28;20448;-64
2022/05/28 00:18:17;;;;;;;14.25;3.35;;;;;;;14.98;45.74;101099.56;4152954;28;20038;-64
2022/05/28 00:20:20;;;;;;;12.48;3.13;;;;;;;14.82;45.33;101102.09;4148043;28;20054;-64
2022/05/28 00:22:23;;;;;;;11.15;2.97;;;;;;;14.98;44.96;101102.19;4148556;28;20042;-64
2022/05/28 00:24:27;;;;;;;11.15;3.50;;;;;;;14.93;45.40;101096.06;4145977;28;20042;-64
2022/05/28 00:26:30;;;;;;;13.68;3.50;;;;;;;14.94;45.57;101101.31;4145243;28;20046;-64
2022/05/28 00:28:35;;;;;;;11.20;3.10;;;;;;;14.99;44.62;101098.72;4148042;28;20047;-65
2022/05/28 00:30:38;;;;;;;;;;;;;;;14.99;45.23;101094.34;4152597;28;20738;-66
2022/05/28 00:32:41;;;;;;;10.45;2.78;;;;;;;14.86;45.58;101097.75;4145091;28;19928;-66
2022/05/28 00:34:44;;;;;;;12.82;2.97;;;;;;;14.83;45.80;101095.13;4146330;28;20038;-65
2022/05/28 00:36:47;;;;;;;14.70;3.53;;;;;;;14.77;45.59;101097.69;4150919;28;20037;-65
2022/05/28 00:38:50;;;;;;;7.90;2.55;;;;;;;14.94;45.18;101090.84;4158371;28;20469;-64
2022/05/28 00:40:58;;;;;;;12.77;2.70;;;;;;;14.84;45.31;101094.25;4154746;28;20120;-64
2022/05/28 00:43:03;;;;;;;12.40;2.28;;;;;;;14.70;46.01;101096.75;4147492;28;20038;-64
2022/05/28 00:45:09;;;;;;;10.75;2.15;;;;;;;14.66;46.49;101098.50;4149741;28;20069;-64
2022/05/28 00:47:13;;;;;;;14.00;4.00;;;;;;;14.70;46.17;101101.13;4159848;28;20045;-64
2022/05/28 00:49:28;;;;;;;7.30;2.08;;;;;;;14.73;46.43;101098.53;4157926;28;20041;-64
2022/05/28 00:51:36;;;;;;;7.95;2.20;;;;;;;14.78;46.11;101094.22;4145667;28;20076;-64
2022/05/28 00:53:39;;;;;;;9.48;2.03;;;;;;;14.86;45.52;101102.97;4151836;28;20405;-64
2022/05/28 00:55:42;;;;;;;13.70;3.20;;;;;;;14.95;44.89;101102.16;4147776;28;20037;-64
2022/05/28 00:57:46;;;;;;;13.02;2.28;;;;;;;14.91;45.85;101096.06;4149339;28;20049;-64
2022/05/28 00:59:49;;;;;;;8.25;2.33;;;;;;;14.74;45.77;101103.78;4159569;28;20037;-64
2022/05/28 01:01:57;;;;;;;14.57;2.47;;;;;;;14.66;45.95;101097.63;4161519;28;20404;-64
2022/05/28 01:04:08;;;;;;;10.60;2.60;;;;;;;14.69;45.83;101095.03;4166439;28;20041;-64
2022/05/28 01:06:18;;;;;;;9.48;2.95;;;;;;;14.59;46.41;101094.03;4164257;28;20054;-64
2022/05/28 01:08:27;;;;;;;5.65;1.63;;;;;;;14.55;47.55;101105.34;4158083;28;20526;-64
2022/05/28 01:10:41;;;;;;;11.93;2.70;;;;;;;14.51;47.54;101100.06;4149962;28;20046;-64
2022/05/28 01:13:01;;;;;;;9.18;2.50;;;;;;;14.50;47.77;101104.44;4157664;28;20065;-64
2022/05/28 01:15:09;;;;;;;6.95;2.10;;;;;;;14.43;47.79;101100.88;4163391;28;20072;-64
2022/05/28 01:17:19;;;;;;;6.32;1.90;;;;;;;14.42;48.37;101098.25;4166290;28;20045;-64
2022/05/28 01:19:33;;;;;;;8.25;2.20;;;;;;;14.35;48.13;101097.31;4159329;28;20116;-64
2022/05/28 01:21:52;;;;;;;9.35;2.20;;;;;;;14.32;48.38;101098.19;4148843;28;20108;-64
2022/05/28 01:24:05;;;;;;;9.63;2.28;;;;;;;14.26;48.54;101097.25;4158029;28;20673;-64
2022/05/28 01:26:16;;;;;;;9.20;2.22;;;;;;;14.17;48.71;101090.19;4152515;28;20042;-64
2022/05/28 01:28:26;;;;;;;8.57;2.00;;;;;;;14.11;48.83;101091.00;4148456;28;20042;-64
2022/05/28 01:30:29;;;;;;;6.35;2.65;;;;;;;14.10;48.79;101088.38;4149724;28;20050;-64
2022/05/28 01:32:35;;;;;;;16.02;3.33;;;;;;;14.11;49.15;101090.13;4151879;28;20048;-64
2022/05/28 01:34:39;;;;;;;9.57;2.70;;;;;;;14.06;49.49;101086.59;4153342;28;20030;-64
2022/05/28 01:36:42;;;;;;;8.73;2.70;;;;;;;13.95;48.71;101089.09;4154659;28;20399;-64
2022/05/28 01:38:47;;;;;;;7.80;2.45;;;;;;;13.95;48.29;101089.97;4156282;28;20041;-64
2022/05/28 01:40:51;;;;;;;11.25;2.92;;;;;;;14.00;47.97;101084.78;4148036;28;20509;-64
2022/05/28 01:42:58;;;;;;;8.73;1.90;;;;;;;14.06;47.71;101082.25;4151176;28;20038;-65
2022/05/28 01:45:04;;;;;;;11.20;2.75;;;;;;;14.17;47.07;101081.47;4157508;28;20072;-64
2022/05/28 01:47:07;;;;;;;5.78;2.00;;;;;;;14.16;47.03;101083.19;4150958;28;20036;-64
2022/05/28 01:49:14;;;;;;;9.15;2.40;;;;;;;14.08;47.47;101082.25;4157844;28;20124;-64
2022/05/28 01:51:19;;;;;;;5.45;2.17;;;;;;;14.08;47.42;101079.66;4151482;28;20037;-64
2022/05/28 01:55:46;;;;;;;7.60;2.53;;;;;;;14.09;47.54;101086.59;4159522;28;20377;-64
2022/05/28 01:57:51;;;;;;;6.70;1.88;;;;;;;14.09;47.53;101091.84;4159345;28;20048;-64
2022/05/28 01:59:54;;;;;;;7.28;2.25;;;;;;;14.10;46.83;101088.38;4164109;28;20042;-64
2022/05/28 02:02:00;;;;;;;7.57;2.33;;;;;;;14.10;47.49;101089.22;4159100;28;20046;-64
2022/05/28 02:04:05;;;;;;;10.30;2.60;;;;;;;14.11;47.53;101090.13;4154013;28;20073;-64
2022/05/28 02:06:08;;;;;;;6.78;1.95;;;;;;;14.02;47.86;101084.78;4171104;28;20111;-64
2022/05/28 02:08:12;;;;;;;10.48;2.20;;;;;;;13.95;48.26;101081.25;4154375;28;20497;-64
2022/05/28 02:10:18;;;;;;;6.65;2.22;;;;;;;13.89;49.12;101082.06;4163540;28;20037;-64
2022/05/28 02:12:27;;;;;;;6.35;1.77;;;;;;;13.84;49.45;101078.50;4156454;28;20141;-63
2022/05/28 02:14:43;;;;;;;7.35;1.90;;;;;;;13.61;49.49;101079.16;4157230;28;20381;-64
2022/05/28 02:16:56;;;;;;;7.75;2.17;;;;;;;13.44;49.86;101078.94;4154166;28;20034;-65
2022/05/28 02:19:05;;;;;;;8.18;2.35;;;;;;;13.37;50.58;101086.69;4148171;28;20520;-64
2022/05/28 02:21:14;;;;;;;7.72;2.13;;;;;;;13.43;50.84;101079.81;4158087;28;20053;-65
2022/05/28 02:23:21;;;;;;;6.15;1.65;;;;;;;13.41;50.67;101080.66;4151257;28;20042;-64
2022/05/28 02:25:29;;;;;;;8.20;1.92;;;;;;;13.32;50.75;101085.72;4147027;28;20056;-67
2022/05/28 02:27:34;;;;;;;8.13;2.13;;;;;;;13.28;51.01;101080.44;4152169;28;20044;-64
2022/05/28 02:29:38;;;;;;;8.50;2.47;;;;;;;13.24;51.00;101081.28;4159378;28;20073;-64
2022/05/28 02:31:45;;;;;;;8.38;2.22;;;;;;;13.27;51.15;101083.94;4158747;28;20104;-64
2022/05/28 02:33:48;;;;;;;12.10;2.30;;;;;;;13.28;51.42;101079.56;4156850;28;20057;-63
2022/05/28 02:35:53;;;;;;;9.77;1.92;;;;;;;13.27;51.45;101083.94;4159070;28;20046;-64
2022/05/28 02:37:56;;;;;;;7.50;2.00;;;;;;;13.22;51.31;101080.38;4151010;28;20481;-64
2022/05/28 02:39:59;;;;;;;7.38;1.83;;;;;;;13.19;51.79;101080.31;4147795;28;20073;-64
2022/05/28 02:42:02;;;;;;;10.85;2.63;;;;;;;13.23;51.65;101079.53;4154849;28;20169;-63
2022/05/28 02:44:05;;;;;;;7.60;2.30;;;;;;;13.20;51.60;101078.59;4155912;28;20049;-63
2022/05/28 02:46:09;;;;;;;8.50;2.70;;;;;;;13.09;51.73;101074.09;4156182;28;20050;-64
2022/05/28 02:48:13;;;;;;;5.95;1.65;;;;;;;13.05;51.85;101081.88;4147804;28;20042;-64
2022/05/28 02:50:16;;;;;;;7.28;2.30;;;;;;;13.01;51.75;101083.56;4147804;28;20034;-64
2022/05/28 02:52:20;;;;;;;9.27;2.15;;;;;;;13.01;52.11;101087.91;4151267;28;20064;-63
2022/05/28 02:54:23;;;;;;;9.25;2.35;;;;;;;12.97;52.09;101080.91;4149217;28;20048;-63
2022/05/28 02:56:26;;;;;;;8.25;1.98;;;;;;;12.92;52.32;101076.50;4151461;28;20034;-63
2022/05/28 02:58:29;;;;;;;6.85;1.70;;;;;;;12.88;52.59;101077.28;4150976;28;20065;-63
2022/05/28 03:00:32;;;;;;;7.00;1.98;;;;;;;12.84;52.49;101079.84;4151890;28;20096;-63
2022/05/28 03:02:35;;;;;;;9.68;2.00;;;;;;;12.88;52.09;101079.03;4155264;28;20076;-63
2022/05/28 03:04:38;;;;;;;10.00;2.50;;;;;;;12.83;52.56;101080.69;4156484;28;20212;-63
2022/05/28 03:06:41;;;;;;;7.40;2.20;;;;;;;12.81;52.97;101077.19;4147550;28;20042;-64
2022/05/28 03:08:46;;;;;;;9.68;2.72;;;;;;;12.80;52.55;101080.63;4161928;28;20045;-63
2022/05/28 03:10:48;;;;;;;9.40;1.83;;;;;;;12.78;52.28;101088.44;4148440;28;20120;-64
2022/05/28 03:12:51;;;;;;;9.93;2.97;;;;;;;12.76;52.64;101090.13;4169964;28;20045;-64
2022/05/28 03:14:54;;;;;;;8.23;2.13;;;;;;;12.69;51.87;101086.56;4156003;28;20057;-64
2022/05/28 03:16:57;;;;;;;8.98;2.75;;;;;;;12.63;52.07;101082.97;4151982;28;20037;-64
2022/05/28 03:19:00;;;;;;;8.52;2.03;;;;;;;12.54;52.04;101087.22;4155068;28;20397;-63
2022/05/28 03:21:03;;;;;;;7.03;2.05;;;;;;;12.55;51.78;101088.94;4155039;28;20046;-64
2022/05/28 03:23:06;;;;;;;9.32;2.05;;;;;;;12.54;52.25;101092.44;4174147;28;20071;-63
2022/05/28 03:25:11;;;;;;;5.80;1.73;;;;;;;12.60;52.61;101095.97;4153986;28;20041;-64
2022/05/28 03:27:13;;;;;;;6.40;1.83;;;;;;;12.58;52.45;101091.59;4157654;28;20037;-64
2022/05/28 03:29:16;;;;;;;6.07;2.05;;;;;;;12.55;52.34;101095.91;4156031;28;20046;-64
2022/05/28 03:31:20;;;;;;;7.28;1.63;;;;;;;12.54;53.12;101094.13;4151693;28;20552;-64
2022/05/28 03:33:23;;;;;;;6.25;1.83;;;;;;;12.47;53.03;101093.19;4154658;28;20041;-64
2022/05/28 03:35:26;;;;;;;7.75;1.88;;;;;;;12.46;53.86;101096.63;4153916;28;20527;-64
2022/05/28 03:37:29;;;;;;;5.35;1.80;;;;;;;12.46;53.66;101093.16;4159373;28;20087;-64
2022/05/28 03:39:32;;;;;;;8.95;1.85;;;;;;;12.45;53.66;101091.41;4159321;28;20570;-63
2022/05/28 03:41:37;;;;;;;6.90;1.85;;;;;;;12.39;54.05;101093.03;4149494;28;20056;-63
2022/05/28 03:43:40;;;;;;;5.22;1.80;;;;;;;12.40;54.07;101091.31;4152289;28;20044;-64
2022/05/28 03:45:43;;;;;;;7.07;1.75;;;;;;;12.36;53.52;101089.50;4147603;28;20037;-63
2022/05/28 03:47:46;;;;;;;9.25;2.10;;;;;;;12.35;54.03;101087.75;4153995;28;20033;-64
2022/05/28 03:49:49;;;;;;;9.43;1.85;;;;;;;12.35;53.55;101092.97;4146913;28;20408;-64
2022/05/28 03:51:52;;;;;;;7.05;1.63;;;;;;;12.38;53.96;101087.78;4150662;28;20034;-65
2022/05/28 03:53:55;;;;;;;6.72;1.90;;;;;;;12.38;54.18;101091.31;4152347;28;20042;-64
2022/05/28 03:55:58;;;;;;;8.88;2.00;;;;;;;12.43;53.41;101091.38;4152581;28;20067;-64
2022/05/28 03:58:03;;;;;;;5.47;1.83;;;;;;;12.52;53.26;101098.47;4152539;28;20037;-64
2022/05/28 04:00:07;;;;;;;7.22;1.63;;;;;;;12.52;53.68;101095.84;4153163;28;20128;-65
2022/05/28 04:02:11;;;;;;;6.72;2.17;;;;;;;12.53;53.81;101098.50;4158379;28;20108;-65
2022/05/28 04:04:14;;;;;;;7.10;1.90;;;;;;;12.48;54.26;101110.56;4146729;28;20030;-65
2022/05/28 04:06:17;;;;;;;5.93;1.88;;;;;;;12.48;54.14;101107.94;4149551;28;20404;-65
2022/05/28 04:08:20;;;;;;;12.00;1.90;;;;;;;12.44;53.94;101108.78;4137029;28;20122;-65
2022/05/28 04:10:23;;;;;;;7.03;1.70;;;;;;;12.41;54.45;101108.69;4134257;28;20489;-65
2022/05/28 04:12:30;;;;;;;6.45;2.00;;;;;;;12.44;54.40;101118.31;4147421;28;20072;-65
2022/05/28 04:14:35;;;;;;;4.38;1.52;;;;;;;12.47;54.22;101113.16;4155518;28;20046;-65
2022/05/28 04:16:39;;;;;;;4.72;2.00;;;;;;;12.42;54.59;101123.50;4148227;28;20419;-65
2022/05/28 04:18:43;;;;;;;4.93;1.67;;;;;;;12.46;54.35;101121.84;4162655;28;20040;-65
2022/05/28 04:20:46;;;;;;;8.55;2.42;;;;;;;12.49;54.38;101120.16;4152031;28;20289;-64
2022/05/28 04:22:49;;;;;;;7.47;1.98;;;;;;;12.55;54.13;101122.00;4154243;28;20045;-65
2022/05/28 04:24:51;;;;;;;7.70;2.58;;;;;;;12.58;53.93;101117.69;4147195;28;20125;-65
2022/05/28 04:26:57;;;;;;;6.13;1.88;;;;;;;12.60;54.07;101122.06;4146913;28;20374;-64
2022/05/28 04:29:00;;;;;;;7.53;1.98;;;;;;;12.62;53.64;101122.97;4152307;28;20495;-64
2022/05/28 04:31:04;;;;;;;10.63;2.47;;;;;;;12.67;52.91;101121.31;4160539;28;20411;-64
2022/05/28 04:33:07;;;;;;;6.22;1.70;;;;;;;12.67;53.08;101114.34;4156743;28;20044;-64
2022/05/28 04:35:11;;;;;;;5.55;1.95;;;;;;;12.72;53.04;101111.84;4164042;28;20049;-64
2022/05/28 04:37:14;;;;;;;9.57;2.53;;;;;;;12.77;52.32;101115.38;4163058;28;20065;-64
2022/05/28 04:39:16;;;;;;;6.55;1.63;;;;;;;12.75;52.20;101120.59;4161651;28;20057;-64
2022/05/28 04:41:19;;;;;;;8.07;2.15;;;;;;;12.77;52.02;101120.59;4162230;28;20136;-64
2022/05/28 04:43:22;;;;;;;7.45;2.13;;;;;;;12.75;52.23;101119.72;4150318;28;20056;-64
2022/05/28 04:45:25;;;;;;;7.38;2.17;;;;;;;12.77;52.21;101123.22;4162537;28;20053;-64
2022/05/28 04:47:30;;;;;;;9.18;2.50;;;;;;;12.85;52.13;101116.38;4157898;28;20076;-65
2022/05/28 04:49:33;;;;;;;6.20;2.03;;;;;;;12.90;52.04;101121.69;4157571;28;20041;-65
2022/05/28 04:51:36;;;;;;;6.18;1.90;;;;;;;12.97;51.75;101126.13;4161177;28;20046;-65
2022/05/28 04:53:39;;;;;;;4.07;1.83;;;;;;;13.03;52.13;101120.13;4154610;28;20030;-64
2022/05/28 04:55:44;;;;;;;7.15;1.83;;;;;;;12.96;51.54;101126.13;4158234;28;20692;-65
2022/05/28 04:57:48;;;;;;;6.22;1.58;;;;;;;13.00;51.09;101126.19;4155495;28;20053;-64
2022/05/28 04:59:50;;;;;;;7.55;2.45;;;;;;;13.02;50.69;101128.81;4152378;28;20061;-65
2022/05/28 05:01:53;;;;;;;7.22;2.08;;;;;;;12.99;50.67;101128.78;4148740;28;20030;-65
2022/05/28 05:03:57;;;;;;;10.32;2.75;;;;;;;12.89;49.80;101128.63;4156945;28;20048;-65
2022/05/28 05:06:00;;;;;;;7.82;2.30;;;;;;;12.84;50.35;101127.69;4154954;28;20049;-65
2022/05/28 05:08:04;;;;;;;5.70;1.50;;;;;;;12.91;50.36;101134.75;4157867;28;20108;-64
2022/05/28 05:10:08;;;;;;;8.02;1.88;;;;;;;13.02;50.57;101119.22;4149503;28;20045;-64
2022/05/28 05:12:11;;;;;;;11.88;1.92;;;;;;;13.11;49.96;101128.94;4149781;28;20041;-65
2022/05/28 05:14:15;;;;;;;10.32;1.83;;;;;;;13.16;49.85;101132.50;4163779;28;20365;-65
2022/05/28 05:16:19;;;;;;;5.28;1.70;;;;;;;13.26;49.62;101129.16;4160658;28;20044;-64
2022/05/28 05:18:22;;;;;;;8.52;1.55;;;;;;;13.37;49.71;101131.06;4157878;28;20092;-64
2022/05/28 05:20:27;;;;;;;8.13;2.25;;;;;;;13.42;50.09;101127.69;4150074;28;20536;-64
2022/05/28 05:22:30;;;;;;;12.32;2.42;;;;;;;13.42;50.25;101129.41;4150647;28;20038;-64
2022/05/28 05:24:33;;;;;;;8.85;2.17;;;;;;;13.42;49.41;101143.34;4156132;28;20472;-64
2022/05/28 05:26:36;;;;;;;8.18;2.30;;;;;;;13.48;49.31;101153.00;4148943;28;20045;-64
2022/05/28 05:28:39;;;;;;;9.02;1.90;;;;;;;13.49;49.34;101140.81;4150162;28;20038;-64
2022/05/28 05:30:46;;;;;;;6.40;1.73;;;;;;;13.56;49.09;101138.28;4155106;28;20172;-65
2022/05/28 05:32:50;;;;;;;7.88;1.88;;;;;;;13.69;48.72;101138.47;4163314;28;20040;-64
2022/05/28 05:34:53;;;;;;;5.90;1.88;;;;;;;13.70;48.69;101140.22;4152442;28;20480;-64
2022/05/28 05:36:57;;;;;;;6.18;2.05;;;;;;;13.80;48.60;101136.84;4154507;28;20072;-64
2022/05/28 05:39:00;;;;;;;5.97;2.40;;;;;;;13.89;48.10;101136.97;4151015;28;20061;-64
2022/05/28 05:41:03;;;;;;;5.13;2.05;;;;;;;13.96;48.39;101128.31;4153861;28;20129;-64
2022/05/28 05:43:07;;;;;;;10.50;2.40;;;;;;;13.93;48.56;101138.75;4155071;28;20152;-64
2022/05/28 05:45:13;;;;;;;11.32;2.20;;;;;;;13.92;48.63;101131.75;4149630;28;20042;-64
2022/05/28 05:47:16;;;;;;;11.32;2.67;;;;;;;13.94;48.95;101132.69;4151447;28;20136;-64
2022/05/28 05:49:19;;;;;;;11.32;2.33;;;;;;;13.91;48.66;101135.22;4162658;28;20134;-65
2022/05/28 05:51:22;;;;;;;10.07;2.17;;;;;;;13.97;49.16;101144.88;4138955;28;20580;-65
2022/05/28 05:53:27;;;;;;;10.52;2.25;;;;;;;14.01;48.67;101140.56;4159333;28;20045;-66
2022/05/28 05:55:30;;;;;;;9.05;2.50;;;;;;;14.04;48.32;101140.59;4153733;28;20630;-65
2022/05/28 05:57:33;;;;;;;7.07;2.35;;;;;;;14.02;48.04;101139.69;4153776;28;20049;-66
2022/05/28 05:59:36;;;;;;;7.30;1.95;;;;;;;14.02;47.33;101140.59;4155329;28;20034;-66
2022/05/28 06:01:39;;;;;;;7.15;2.15;;;;;;;14.00;47.57;101137.06;4147699;28;20040;-66
2022/05/28 06:03:44;;;;;;;7.15;1.58;;;;;;;14.05;47.41;101134.53;4142667;28;20065;-66
2022/05/28 06:05:48;;;;;;;7.88;1.98;;;;;;;14.12;47.73;101133.72;4153087;28;20052;-67
2022/05/28 06:07:50;;;;;;;7.72;2.03;;;;;;;14.14;47.41;101130.25;4148240;28;20044;-66
2022/05/28 06:09:55;;;;;;;8.75;2.33;;;;;;;14.12;47.11;101137.22;4148844;28;20496;-66
2022/05/28 06:11:58;;;;;;;10.10;2.30;;;;;;;14.14;47.05;101138.09;4148066;28;20058;-67
2022/05/28 06:14:01;;;;;;;9.07;2.10;;;;;;;14.29;47.39;101126.94;4155736;28;20052;-66
2022/05/28 06:16:04;;;;;;;5.80;1.67;;;;;;;14.34;46.89;101133.91;4157677;28;20116;-66
2022/05/28 06:18:07;;;;;;;9.48;2.42;;;;;;;14.28;46.23;101130.41;4162785;28;20124;-66
2022/05/28 06:20:13;;;;;;;10.38;2.55;;;;;;;14.36;46.35;101127.84;4164154;28;20066;-66
2022/05/28 06:22:16;;;;;;;9.57;2.35;;;;;;;14.50;46.72;101133.22;4160780;28;20123;-66
2022/05/28 06:24:19;;;;;;;7.95;1.67;;;;;;;14.60;46.07;101131.53;4156961;28;20041;-67
2022/05/28 06:26:23;;;;;;;8.52;2.05;;;;;;;14.60;46.99;101140.28;4150324;28;20041;-68
2022/05/28 06:28:26;;;;;;;9.43;2.13;;;;;;;14.59;46.41;101133.28;4145687;28;20033;-67
2022/05/28 06:30:29;;;;;;;11.32;2.65;;;;;;;14.65;46.52;101133.38;4151782;28;20061;-67
2022/05/28 06:32:31;;;;;;;13.00;2.20;;;;;;;14.64;46.73;101135.97;4153603;28;20471;-67
2022/05/28 06:34:35;;;;;;;9.40;2.25;;;;;;;14.72;46.43;101136.94;4148602;28;20121;-66
2022/05/28 06:36:37;;;;;;;6.65;2.08;;;;;;;14.78;46.82;101129.13;4151421;28;20044;-67
2022/05/28 06:38:41;;;;;;;7.15;1.63;;;;;;;14.74;47.00;101126.47;4155314;28;20044;-68
2022/05/28 06:40:44;;;;;;;9.52;2.08;;;;;;;14.76;46.61;101129.97;4151129;28;20133;-68
2022/05/28 06:42:49;;;;;;;7.22;2.38;;;;;;;14.82;46.50;101130.00;4149304;28;20049;-67
2022/05/28 06:44:55;;;;;;;6.93;2.45;;;;;;;15.01;47.97;101128.41;4146254;28;20129;-67
2022/05/28 06:46:59;;;;;;;8.32;2.20;;;;;;;15.11;45.50;101118.84;4150007;28;20064;-67
2022/05/28 06:49:02;;;;;;;8.55;2.20;;;;;;;15.28;44.05;101121.59;4153677;28;20033;-67
2022/05/28 06:51:04;;;;;;;8.25;2.13;;;;;;;15.06;45.70;101125.81;4157521;28;20122;-67
2022/05/28 06:53:08;;;;;;;6.75;1.80;;;;;;;15.07;46.71;101127.56;4148793;28;20410;-68
2022/05/28 06:55:11;;;;;;;8.18;1.90;;;;;;;15.06;47.02;101110.97;4150468;28;20490;-68
2022/05/28 06:57:14;;;;;;;9.20;2.30;;;;;;;15.01;46.68;101116.19;4155127;28;20050;-68
2022/05/28 06:59:18;;;;;;;8.25;1.90;;;;;;;14.94;45.84;101117.00;4155754;28;20624;-68
2022/05/28 07:01:21;;;;;;;3.67;1.45;;;;;;;15.00;46.61;101122.28;4150138;28;20608;-69
2022/05/28 07:03:25;;;;;;;6.43;2.38;;;;;;;15.03;46.13;101125.81;4155319;28;20064;-68
2022/05/28 07:05:29;;;;;;;7.95;1.73;;;;;;;15.04;47.25;101122.31;4148661;28;20117;-68
2022/05/28 07:07:32;;;;;;;7.72;1.80;;;;;;;15.13;47.61;101117.13;4146075;28;20132;-68
2022/05/28 07:09:35;;;;;;;7.63;1.65;;;;;;;15.20;47.11;101113.69;4155455;28;20045;-68
2022/05/28 07:11:37;;;;;;;15.20;2.22;;;;;;;15.26;46.04;101116.34;4159148;28;20056;-68
2022/05/28 07:13:41;;;;;;;5.80;1.95;;;;;;;15.51;44.25;101113.84;4150526;28;20141;-63
2022/05/28 07:15:46;;;;;;;8.07;1.92;;;;;;;15.42;45.23;101116.41;4150783;28;20054;-66
2022/05/28 07:17:49;;;;;;;6.63;2.20;;;;;;;15.42;45.74;101119.03;4159658;28;20104;-67
2022/05/28 07:19:52;;;;;;;9.13;2.47;;;;;;;15.54;44.62;101119.09;4163248;28;20029;-67
2022/05/28 07:21:56;;;;;;;7.03;2.20;;;;;;;15.63;44.58;101119.13;4151290;28;20056;-64
2022/05/28 07:23:59;;;;;;;7.78;2.13;;;;;;;15.63;44.72;101115.63;4157761;28;20037;-65
2022/05/28 07:26:04;;;;;;;7.53;2.25;;;;;;;15.74;44.44;101115.66;4147317;28;20072;-68
2022/05/28 07:28:27;;;;;;;9.15;1.88;;;;;;;15.67;44.05;101113.03;4152382;28;20520;-66
2022/05/28 07:30:31;;;;;;;6.90;1.70;;;;;;;15.58;45.42;101110.38;4162680;28;20045;-72
2022/05/28 07:32:35;;;;;;;6.90;1.88;;;;;;;15.56;44.39;101117.34;4163216;28;20048;-69
2022/05/28 07:34:38;;;;;;;10.10;2.58;;;;;;;15.78;43.61;101112.19;4147707;28;20048;-62
2022/05/28 07:36:41;;;;;;;7.70;2.42;;;;;;;15.89;43.61;101100.03;4148643;28;20041;-66
2022/05/28 07:38:44;;;;;;;8.73;2.10;;;;;;;15.96;44.06;101099.16;4151362;28;20124;-66
2022/05/28 07:40:47;;;;;;;9.82;2.60;;;;;;;15.92;44.50;101104.41;4147446;28;20045;-66
2022/05/28 07:42:50;;;;;;;6.70;2.13;;;;;;;15.89;44.96;101102.66;4146804;28;20412;-65
2022/05/28 07:44:55;;;;;;;10.00;2.35;;;;;;;15.82;45.14;101108.75;4153781;28;20046;-67
2022/05/28 07:46:58;;;;;;;10.88;2.55;;;;;;;15.87;46.30;101107.88;4147189;28;20045;-68
2022/05/28 07:49:04;;;;;;;13.02;2.45;;;;;;;16.26;43.68;101104.47;4146814;28;20049;-63
2022/05/28 07:51:09;;;;;;;9.27;2.67;;;;;;;16.28;47.63;101108.84;4160091;28;20060;-63
2022/05/28 07:53:12;;;;;;;11.07;1.90;;;;;;;16.44;47.33;101111.47;4152129;28;20068;-63
2022/05/28 07:55:15;;;;;;;8.02;2.35;;;;;;;16.75;43.33;101104.47;4155674;28;20058;-64
2022/05/28 07:57:18;;;;;;;9.07;2.10;;;;;;;16.90;44.82;101087.84;4152477;28;20053;-62
2022/05/28 07:59:22;;;;;;;11.80;3.07;;;;;;;17.08;41.69;101086.91;4146827;28;20038;-62
2022/05/28 08:01:28;;;;;;;8.23;1.98;;;;;;;16.98;43.41;101093.97;4146379;28;20415;-64
2022/05/28 08:03:31;;;;;;;10.70;2.45;;;;;;;17.12;41.02;101077.28;4145941;28;20033;-64
2022/05/28 08:05:37;;;;;;;10.65;2.78;;;;;;;16.95;42.97;101080.81;4155162;28;20038;-64
2022/05/28 08:07:40;;;;;;;8.63;1.88;;;;;;;17.13;43.28;101074.66;4146949;28;20065;-64
2022/05/28 08:09:43;;;;;;;7.22;2.10;;;;;;;17.47;40.47;101073.66;4156872;28;20041;-62
2022/05/28 08:11:46;;;;;;;9.85;2.22;;;;;;;17.06;43.03;101072.94;4158807;28;20033;-62
2022/05/28 08:13:49;;;;;;;6.60;1.27;;;;;;;16.92;43.05;101081.72;4147674;28;20033;-62
2022/05/28 08:15:54;;;;;;;5.75;1.63;;;;;;;16.69;43.68;101072.94;4154049;28;20447;-63
2022/05/28 08:17:57;;;;;;;7.25;2.22;;;;;;;16.79;42.96;101074.69;4160940;28;20124;-62
2022/05/28 08:20:00;;;;;;;12.05;2.33;;;;;;;16.80;42.92;101070.31;4161560;28;20033;-62
2022/05/28 08:24:25;;;;;;;9.10;2.28;;;;;;;16.80;42.13;101070.31;4156076;28;20535;-62
2022/05/28 08:26:29;;;;;;;9.60;2.25;;;;;;;17.11;41.04;101065.88;4150767;28;20037;-63
2022/05/28 08:28:31;;;;;;;5.13;1.75;;;;;;;17.04;42.17;101065.06;4146869;28;20041;-63
2022/05/28 08:30:35;;;;;;;6.55;1.75;;;;;;;17.16;42.66;101064.13;4145914;28;20117;-62
2022/05/28 08:32:38;;;;;;;10.27;2.60;;;;;;;17.42;40.86;101065.78;4146018;28;20034;-64
2022/05/28 08:34:41;;;;;;;8.20;2.38;;;;;;;17.27;40.86;101062.34;4149773;28;20049;-64
2022/05/28 08:36:43;;;;;;;6.63;1.73;;;;;;;16.91;42.56;101058.09;4154065;28;20030;-63
2022/05/28 08:38:51;;;;;;;8.40;2.60;;;;;;;16.80;42.45;101065.06;4152235;28;20050;-63
2022/05/28 08:40:57;;;;;;;;;;;;;;;16.53;43.26;101067.72;4155782;28;20042;-62
2022/05/28 08:43:00;;;;;;;9.45;2.70;;;;;;;16.52;42.42;101068.59;4147835;28;20351;-63
2022/05/28 08:45:05;;;;;;;5.93;2.10;;;;;;;16.24;43.39;101067.72;4153549;28;20094;-65
2022/05/28 08:47:15;;;;;;;6.82;2.05;;;;;;;16.19;43.35;101072.09;4169310;28;20045;-64
2022/05/28 08:49:22;;;;;;;7.10;2.17;;;;;;;16.17;43.99;101063.34;4154613;28;20445;-63
2022/05/28 08:51:34;;;;;;;6.72;1.92;;;;;;;16.22;43.30;101069.47;4154020;28;20037;-64
2022/05/28 08:53:44;;;;;;;5.50;1.55;;;;;;;16.23;43.31;101064.22;4157715;28;20128;-64
2022/05/28 08:55:50;;;;;;;9.70;2.38;;;;;;;16.38;42.69;101063.38;4138922;28;20048;-64
2022/05/28 08:57:58;;;;;;;7.50;2.20;;;;;;;16.47;42.89;101069.47;4146743;28;20048;-64
2022/05/28 09:00:07;;;;;;;6.97;1.98;;;;;;;16.42;41.22;101068.59;4159069;28;20144;-64
2022/05/28 09:02:20;;;;;;;6.07;1.38;;;;;;;16.49;41.15;101065.09;4155736;28;20069;-68
2022/05/28 09:04:27;;;;;;;4.90;1.52;;;;;;;16.63;40.58;101062.47;4142521;28;20048;-64
2022/05/28 09:06:36;;;;;;;8.30;1.70;;;;;;;16.43;41.08;101059.84;4149782;28;20041;-65
2022/05/28 09:08:41;;;;;;;8.77;2.10;;;;;;;16.69;40.17;101052.84;4151073;28;20565;-68
2022/05/28 09:10:50;;;;;;;7.40;1.45;;;;;;;16.65;40.87;101052.84;4154888;28;20404;-62
2022/05/28 09:12:56;;;;;;;10.13;2.25;;;;;;;16.82;40.69;101058.06;4153880;28;20078;-62
2022/05/28 09:14:59;;;;;;;8.95;1.83;;;;;;;17.06;39.44;101044.88;4155016;28;20546;-64
2022/05/28 09:17:07;;;;;;;6.63;1.67;;;;;;;17.37;39.36;101046.53;4159424;28;20460;-63
2022/05/28 09:19:16;;;;;;;8.23;2.42;;;;;;;17.24;39.59;101038.72;4166701;28;20041;-63
2022/05/28 09:21:21;;;;;;;11.43;2.20;;;;;;;17.32;39.71;101033.41;4154185;28;20042;-63
2022/05/28 09:23:25;;;;;;;4.25;1.20;;;;;;;17.18;40.27;101033.47;4162431;28;20136;-63
2022/05/28 09:25:34;;;;;;;8.57;1.87;;;;;;;17.07;39.74;101044.03;4152847;28;20046;-61
2022/05/28 09:27:56;;;;;;;8.98;1.70;;;;;;;16.99;39.84;101037.91;4153318;28;20089;-62
2022/05/28 09:30:18;;;;;;;5.65;2.25;;;;;;;16.98;40.15;101046.69;4155447;28;20547;-62
2022/05/28 09:32:28;;;;;;;7.13;1.67;;;;;;;16.88;40.51;101045.81;4149239;28;20053;-62
2022/05/28 09:34:41;;;;;;;5.97;1.30;;;;;;;16.91;40.68;101050.22;4150825;28;20048;-62
2022/05/28 09:36:55;;;;;;;5.25;1.80;;;;;;;16.85;40.79;101045.81;4157614;28;20041;-63
2022/05/28 09:39:05;;;;;;;6.88;1.50;;;;;;;17.22;39.85;101036.97;4158806;28;20528;-64
2022/05/28 09:41:24;;;;;;;7.57;1.95;;;;;;;17.08;40.26;101040.53;4155803;28;20311;-64
2022/05/28 09:43:53;;;;;;;3.42;1.23;;;;;;;17.04;40.28;101038.78;4138692;28;20092;-64
2022/05/28 09:46:07;;;;;;;6.82;1.52;;;;;;;16.78;40.11;101036.19;4153363;28;20033;-64